sensor_id;sensor_type;location;lat;lon;timestamp;P1;durP1;ratioP1;P2;durP2;ratioP2
55063;SDS011;40963;52.168;21.296;2023-07-02T00:00:57;26.90;;;15.80;;
55063;SDS011;40963;52.168;21.296;2023-07-02T00:03:24;34.38;;;16.50;;
55063;SDS011;40963;52.168;21.296;2023-07-02T00:05:50;29.40;;;16.02;;
55063;SDS011;40963;52.168;21.296;2023-07-02T00:08:19;29.45;;;16.85;;
55063;SDS011;40963;52.168;21.296;2023-07-02T00:10:45;28.42;;;16.92;;
55063;SDS011;40963;52.168;21.296;2023-07-02T00:13:11;29.45;;;17.15;;
55063;SDS011;40963;52.168;21.296;2023-07-02T00:15:36;29.13;;;17.38;;
55063;SDS011;40963;52.168;21.296;2023-07-02T00:18:02;33.83;;;17.25;;
55063;SDS011;40963;52.168;21.296;2023-07-02T00:20:27;31.52;;;17.85;;
55063;SDS011;40963;52.168;21.296;2023-07-02T00:22:55;34.72;;;18.35;;
55063;SDS011;40963;52.168;21.296;2023-07-02T00:25:21;40.17;;;18.90;;
55063;SDS011;40963;52.168;21.296;2023-07-02T00:27:47;36.03;;;19.10;;
55063;SDS011;40963;52.168;21.296;2023-07-02T00:30:13;43.53;;;19.40;;
55063;SDS011;40963;52.168;21.296;2023-07-02T00:32:38;35.88;;;19.48;;
55063;SDS011;40963;52.168;21.296;2023-07-02T00:35:04;33.30;;;20.30;;
55063;SDS011;40963;52.168;21.296;2023-07-02T00:37:30;37.60;;;20.33;;
55063;SDS011;40963;52.168;21.296;2023-07-02T00:39:56;36.90;;;19.50;;
55063;SDS011;40963;52.168;21.296;2023-07-02T00:42:22;40.33;;;19.95;;
55063;SDS011;40963;52.168;21.296;2023-07-02T00:44:48;34.63;;;19.65;;
55063;SDS011;40963;52.168;21.296;2023-07-02T00:47:14;43.03;;;21.88;;
55063;SDS011;40963;52.168;21.296;2023-07-02T00:49:41;43.38;;;21.13;;
55063;SDS011;40963;52.168;21.296;2023-07-02T00:52:07;43.55;;;22.50;;
55063;SDS011;40963;52.168;21.296;2023-07-02T00:54:32;43.40;;;22.98;;
55063;SDS011;40963;52.168;21.296;2023-07-02T00:56:58;42.63;;;22.23;;
55063;SDS011;40963;52.168;21.296;2023-07-02T00:59:27;42.42;;;23.02;;
55063;SDS011;40963;52.168;21.296;2023-07-02T01:01:54;41.13;;;22.38;;
55063;SDS011;40963;52.168;21.296;2023-07-02T01:04:22;39.17;;;21.85;;
55063;SDS011;40963;52.168;21.296;2023-07-02T01:06:52;48.80;;;23.67;;
55063;SDS011;40963;52.168;21.296;2023-07-02T01:09:22;39.80;;;23.15;;
55063;SDS011;40963;52.168;21.296;2023-07-02T01:11:53;43.42;;;22.90;;
55063;SDS011;40963;52.168;21.296;2023-07-02T01:14:25;40.63;;;23.27;;
55063;SDS011;40963;52.168;21.296;2023-07-02T01:16:53;45.97;;;23.33;;
55063;SDS011;40963;52.168;21.296;2023-07-02T01:22:09;40.63;;;21.80;;
55063;SDS011;40963;52.168;21.296;2023-07-02T01:24:36;40.70;;;22.75;;
55063;SDS011;40963;52.168;21.296;2023-07-02T01:27:03;37.83;;;21.98;;
55063;SDS011;40963;52.168;21.296;2023-07-02T01:29:30;45.17;;;21.77;;
55063;SDS011;40963;52.168;21.296;2023-07-02T01:31:56;40.92;;;22.50;;
55063;SDS011;40963;52.168;21.296;2023-07-02T01:34:22;37.85;;;21.10;;
55063;SDS011;40963;52.168;21.296;2023-07-02T01:36:48;44.50;;;21.58;;
55063;SDS011;40963;52.168;21.296;2023-07-02T01:39:14;37.65;;;22.23;;
55063;SDS011;40963;52.168;21.296;2023-07-02T01:41:45;37.42;;;21.27;;
55063;SDS011;40963;52.168;21.296;2023-07-02T01:44:14;41.33;;;21.33;;
55063;SDS011;40963;52.168;21.296;2023-07-02T01:46:40;37.42;;;21.70;;
55063;SDS011;40963;52.168;21.296;2023-07-02T01:49:06;35.42;;;21.70;;
55063;SDS011;40963;52.168;21.296;2023-07-02T01:51:32;37.53;;;20.90;;
55063;SDS011;40963;52.168;21.296;2023-07-02T01:53:58;42.30;;;22.60;;
55063;SDS011;40963;52.168;21.296;2023-07-02T01:56:24;41.60;;;22.48;;
55063;SDS011;40963;52.168;21.296;2023-07-02T01:58:49;39.20;;;21.45;;
55063;SDS011;40963;52.168;21.296;2023-07-02T02:01:15;37.92;;;20.13;;
55063;SDS011;40963;52.168;21.296;2023-07-02T02:03:41;33.15;;;20.58;;
55063;SDS011;40963;52.168;21.296;2023-07-02T02:06:07;37.55;;;20.98;;
55063;SDS011;40963;52.168;21.296;2023-07-02T02:08:32;38.35;;;20.33;;
55063;SDS011;40963;52.168;21.296;2023-07-02T02:10:58;31.75;;;20.75;;
55063;SDS011;40963;52.168;21.296;2023-07-02T02:13:25;37.97;;;20.58;;
55063;SDS011;40963;52.168;21.296;2023-07-02T02:15:51;34.90;;;21.48;;
55063;SDS011;40963;52.168;21.296;2023-07-02T02:18:17;37.25;;;21.00;;
55063;SDS011;40963;52.168;21.296;2023-07-02T02:20:42;33.80;;;20.08;;
55063;SDS011;40963;52.168;21.296;2023-07-02T02:23:08;41.80;;;21.23;;
55063;SDS011;40963;52.168;21.296;2023-07-02T02:25:34;37.33;;;21.45;;
55063;SDS011;40963;52.168;21.296;2023-07-02T02:27:59;37.25;;;21.58;;
55063;SDS011;40963;52.168;21.296;2023-07-02T02:30:25;40.33;;;22.05;;
55063;SDS011;40963;52.168;21.296;2023-07-02T02:32:50;36.55;;;21.80;;
55063;SDS011;40963;52.168;21.296;2023-07-02T02:35:16;36.90;;;21.08;;
55063;SDS011;40963;52.168;21.296;2023-07-02T02:37:42;36.13;;;21.98;;
55063;SDS011;40963;52.168;21.296;2023-07-02T02:40:07;38.35;;;21.02;;
55063;SDS011;40963;52.168;21.296;2023-07-02T02:42:36;40.85;;;22.23;;
55063;SDS011;40963;52.168;21.296;2023-07-02T02:45:02;36.53;;;21.90;;
55063;SDS011;40963;52.168;21.296;2023-07-02T02:47:28;37.92;;;21.17;;
55063;SDS011;40963;52.168;21.296;2023-07-02T02:49:53;39.03;;;22.25;;
55063;SDS011;40963;52.168;21.296;2023-07-02T02:52:19;37.70;;;21.10;;
55063;SDS011;40963;52.168;21.296;2023-07-02T02:54:45;34.78;;;21.60;;
55063;SDS011;40963;52.168;21.296;2023-07-02T02:57:11;37.60;;;21.60;;
55063;SDS011;40963;52.168;21.296;2023-07-02T02:59:36;40.90;;;22.98;;
55063;SDS011;40963;52.168;21.296;2023-07-02T03:02:02;36.65;;;22.10;;
55063;SDS011;40963;52.168;21.296;2023-07-02T03:04:28;35.70;;;22.27;;
55063;SDS011;40963;52.168;21.296;2023-07-02T03:06:54;36.75;;;20.85;;
55063;SDS011;40963;52.168;21.296;2023-07-02T03:09:20;42.00;;;23.58;;
55063;SDS011;40963;52.168;21.296;2023-07-02T03:11:46;37.78;;;21.98;;
55063;SDS011;40963;52.168;21.296;2023-07-02T03:14:13;35.67;;;20.52;;
55063;SDS011;40963;52.168;21.296;2023-07-02T03:16:40;36.60;;;22.48;;
55063;SDS011;40963;52.168;21.296;2023-07-02T03:19:06;36.03;;;22.75;;
55063;SDS011;40963;52.168;21.296;2023-07-02T03:21:32;41.50;;;21.88;;
55063;SDS011;40963;52.168;21.296;2023-07-02T03:23:57;36.65;;;22.10;;
55063;SDS011;40963;52.168;21.296;2023-07-02T03:26:23;35.85;;;22.08;;
55063;SDS011;40963;52.168;21.296;2023-07-02T03:28:49;34.25;;;21.27;;
55063;SDS011;40963;52.168;21.296;2023-07-02T03:31:14;38.92;;;23.45;;
55063;SDS011;40963;52.168;21.296;2023-07-02T03:33:40;36.60;;;22.20;;
55063;SDS011;40963;52.168;21.296;2023-07-02T03:36:06;38.50;;;22.27;;
55063;SDS011;40963;52.168;21.296;2023-07-02T03:38:31;34.80;;;22.00;;
55063;SDS011;40963;52.168;21.296;2023-07-02T03:40:57;36.20;;;21.83;;
55063;SDS011;40963;52.168;21.296;2023-07-02T03:43:23;37.55;;;22.10;;
55063;SDS011;40963;52.168;21.296;2023-07-02T03:45:51;41.53;;;21.10;;
55063;SDS011;40963;52.168;21.296;2023-07-02T03:48:17;38.88;;;22.30;;
55063;SDS011;40963;52.168;21.296;2023-07-02T03:50:42;38.05;;;21.52;;
55063;SDS011;40963;52.168;21.296;2023-07-02T03:53:08;34.15;;;21.42;;
55063;SDS011;40963;52.168;21.296;2023-07-02T03:55:34;34.95;;;22.75;;
55063;SDS011;40963;52.168;21.296;2023-07-02T03:58:00;40.72;;;21.92;;
55063;SDS011;40963;52.168;21.296;2023-07-02T04:00:25;36.67;;;21.95;;
55063;SDS011;40963;52.168;21.296;2023-07-02T04:02:51;35.70;;;21.50;;
55063;SDS011;40963;52.168;21.296;2023-07-02T04:05:16;36.08;;;21.13;;
55063;SDS011;40963;52.168;21.296;2023-07-02T04:07:42;34.05;;;20.70;;
55063;SDS011;40963;52.168;21.296;2023-07-02T04:10:08;33.40;;;21.23;;
55063;SDS011;40963;52.168;21.296;2023-07-02T04:12:34;36.65;;;20.05;;
55063;SDS011;40963;52.168;21.296;2023-07-02T04:14:59;34.28;;;19.20;;
55063;SDS011;40963;52.168;21.296;2023-07-02T04:17:25;30.30;;;19.48;;
55063;SDS011;40963;52.168;21.296;2023-07-02T04:19:53;32.30;;;19.80;;
55063;SDS011;40963;52.168;21.296;2023-07-02T04:22:19;32.67;;;19.58;;
55063;SDS011;40963;52.168;21.296;2023-07-02T04:24:45;31.95;;;19.95;;
55063;SDS011;40963;52.168;21.296;2023-07-02T04:27:13;37.03;;;21.17;;
55063;SDS011;40963;52.168;21.296;2023-07-02T04:29:42;31.02;;;18.88;;
55063;SDS011;40963;52.168;21.296;2023-07-02T04:32:08;31.13;;;18.60;;
55063;SDS011;40963;52.168;21.296;2023-07-02T04:34:34;30.95;;;19.02;;
55063;SDS011;40963;52.168;21.296;2023-07-02T04:37:01;31.23;;;18.83;;
55063;SDS011;40963;52.168;21.296;2023-07-02T04:39:30;27.40;;;18.83;;
55063;SDS011;40963;52.168;21.296;2023-07-02T04:41:56;30.27;;;19.48;;
55063;SDS011;40963;52.168;21.296;2023-07-02T04:44:22;28.50;;;18.80;;
55063;SDS011;40963;52.168;21.296;2023-07-02T04:46:58;29.95;;;18.60;;
55063;SDS011;40963;52.168;21.296;2023-07-02T04:49:24;31.30;;;18.17;;
55063;SDS011;40963;52.168;21.296;2023-07-02T04:51:50;33.03;;;18.98;;
55063;SDS011;40963;52.168;21.296;2023-07-02T04:54:16;25.40;;;18.13;;
55063;SDS011;40963;52.168;21.296;2023-07-02T04:56:41;29.20;;;18.63;;
55063;SDS011;40963;52.168;21.296;2023-07-02T04:59:07;26.52;;;17.50;;
55063;SDS011;40963;52.168;21.296;2023-07-02T05:01:32;29.27;;;18.10;;
55063;SDS011;40963;52.168;21.296;2023-07-02T05:03:58;26.23;;;17.80;;
55063;SDS011;40963;52.168;21.296;2023-07-02T05:06:23;25.70;;;17.73;;
55063;SDS011;40963;52.168;21.296;2023-07-02T05:08:49;24.63;;;17.42;;
55063;SDS011;40963;52.168;21.296;2023-07-02T05:11:15;30.58;;;18.02;;
55063;SDS011;40963;52.168;21.296;2023-07-02T05:13:40;29.58;;;18.33;;
55063;SDS011;40963;52.168;21.296;2023-07-02T05:16:06;26.08;;;17.35;;
55063;SDS011;40963;52.168;21.296;2023-07-02T05:18:32;26.38;;;17.42;;
55063;SDS011;40963;52.168;21.296;2023-07-02T05:20:57;25.77;;;16.77;;
55063;SDS011;40963;52.168;21.296;2023-07-02T05:23:23;25.20;;;15.35;;
55063;SDS011;40963;52.168;21.296;2023-07-02T05:25:48;23.75;;;16.52;;
55063;SDS011;40963;52.168;21.296;2023-07-02T05:28:14;27.42;;;16.55;;
55063;SDS011;40963;52.168;21.296;2023-07-02T05:30:40;24.95;;;15.98;;
55063;SDS011;40963;52.168;21.296;2023-07-02T05:33:05;25.77;;;15.63;;
55063;SDS011;40963;52.168;21.296;2023-07-02T05:35:31;22.38;;;14.90;;
55063;SDS011;40963;52.168;21.296;2023-07-02T05:37:56;23.67;;;14.90;;
55063;SDS011;40963;52.168;21.296;2023-07-02T05:40:22;19.67;;;13.95;;
55063;SDS011;40963;52.168;21.296;2023-07-02T05:42:48;25.52;;;14.75;;
55063;SDS011;40963;52.168;21.296;2023-07-02T05:45:13;22.02;;;13.25;;
55063;SDS011;40963;52.168;21.296;2023-07-02T05:47:39;21.08;;;13.40;;
55063;SDS011;40963;52.168;21.296;2023-07-02T05:50:05;20.92;;;13.30;;
55063;SDS011;40963;52.168;21.296;2023-07-02T05:52:32;19.52;;;12.20;;
55063;SDS011;40963;52.168;21.296;2023-07-02T05:54:58;27.83;;;12.68;;
55063;SDS011;40963;52.168;21.296;2023-07-02T05:57:24;21.58;;;12.43;;
55063;SDS011;40963;52.168;21.296;2023-07-02T05:59:49;16.88;;;11.50;;
55063;SDS011;40963;52.168;21.296;2023-07-02T06:02:15;18.50;;;11.60;;
55063;SDS011;40963;52.168;21.296;2023-07-02T06:04:40;15.73;;;11.40;;
55063;SDS011;40963;52.168;21.296;2023-07-02T06:07:06;15.38;;;9.60;;
55063;SDS011;40963;52.168;21.296;2023-07-02T06:09:32;13.98;;;10.38;;
55063;SDS011;40963;52.168;21.296;2023-07-02T06:11:57;14.70;;;10.40;;
55063;SDS011;40963;52.168;21.296;2023-07-02T06:14:23;18.65;;;11.02;;
55063;SDS011;40963;52.168;21.296;2023-07-02T06:16:50;14.45;;;9.90;;
55063;SDS011;40963;52.168;21.296;2023-07-02T06:19:17;17.63;;;10.05;;
55063;SDS011;40963;52.168;21.296;2023-07-02T06:21:42;17.27;;;10.02;;
55063;SDS011;40963;52.168;21.296;2023-07-02T06:24:08;14.18;;;8.70;;
55063;SDS011;40963;52.168;21.296;2023-07-02T06:26:34;13.75;;;8.70;;
55063;SDS011;40963;52.168;21.296;2023-07-02T06:28:59;13.23;;;8.55;;
55063;SDS011;40963;52.168;21.296;2023-07-02T06:31:25;14.30;;;8.88;;
55063;SDS011;40963;52.168;21.296;2023-07-02T06:33:51;13.10;;;8.75;;
55063;SDS011;40963;52.168;21.296;2023-07-02T06:36:17;13.93;;;8.85;;
55063;SDS011;40963;52.168;21.296;2023-07-02T06:38:43;13.18;;;8.23;;
55063;SDS011;40963;52.168;21.296;2023-07-02T06:41:09;15.02;;;8.82;;
55063;SDS011;40963;52.168;21.296;2023-07-02T06:43:35;15.48;;;9.02;;
55063;SDS011;40963;52.168;21.296;2023-07-02T06:46:01;13.40;;;8.27;;
55063;SDS011;40963;52.168;21.296;2023-07-02T06:48:26;13.02;;;8.88;;
55063;SDS011;40963;52.168;21.296;2023-07-02T06:50:52;13.07;;;8.45;;
55063;SDS011;40963;52.168;21.296;2023-07-02T06:53:17;12.80;;;7.82;;
55063;SDS011;40963;52.168;21.296;2023-07-02T06:55:43;13.13;;;8.63;;
55063;SDS011;40963;52.168;21.296;2023-07-02T06:58:08;12.57;;;8.38;;
55063;SDS011;40963;52.168;21.296;2023-07-02T07:00:34;12.00;;;8.05;;
55063;SDS011;40963;52.168;21.296;2023-07-02T07:03:03;19.25;;;8.63;;
55063;SDS011;40963;52.168;21.296;2023-07-02T07:05:30;13.40;;;8.07;;
55063;SDS011;40963;52.168;21.296;2023-07-02T07:07:56;10.00;;;7.80;;
55063;SDS011;40963;52.168;21.296;2023-07-02T07:10:22;10.43;;;7.05;;
55063;SDS011;40963;52.168;21.296;2023-07-02T07:12:47;13.57;;;7.50;;
55063;SDS011;40963;52.168;21.296;2023-07-02T07:15:13;15.48;;;7.13;;
55063;SDS011;40963;52.168;21.296;2023-07-02T07:17:39;9.70;;;7.20;;
55063;SDS011;40963;52.168;21.296;2023-07-02T07:20:04;11.77;;;7.13;;
55063;SDS011;40963;52.168;21.296;2023-07-02T07:22:30;10.05;;;6.47;;
55063;SDS011;40963;52.168;21.296;2023-07-02T07:24:56;10.35;;;6.22;;
55063;SDS011;40963;52.168;21.296;2023-07-02T07:27:22;9.93;;;6.95;;
55063;SDS011;40963;52.168;21.296;2023-07-02T07:29:47;9.75;;;6.03;;
55063;SDS011;40963;52.168;21.296;2023-07-02T07:32:13;8.65;;;5.18;;
55063;SDS011;40963;52.168;21.296;2023-07-02T07:34:38;11.45;;;6.00;;
55063;SDS011;40963;52.168;21.296;2023-07-02T07:37:04;9.57;;;5.65;;
55063;SDS011;40963;52.168;21.296;2023-07-02T07:39:30;10.82;;;5.93;;
55063;SDS011;40963;52.168;21.296;2023-07-02T07:41:56;7.20;;;4.95;;
55063;SDS011;40963;52.168;21.296;2023-07-02T07:44:21;8.52;;;5.40;;
55063;SDS011;40963;52.168;21.296;2023-07-02T07:46:47;7.75;;;5.55;;
55063;SDS011;40963;52.168;21.296;2023-07-02T07:49:13;6.97;;;5.18;;
55063;SDS011;40963;52.168;21.296;2023-07-02T07:51:39;6.97;;;4.93;;
55063;SDS011;40963;52.168;21.296;2023-07-02T07:54:04;8.93;;;5.10;;
55063;SDS011;40963;52.168;21.296;2023-07-02T07:56:30;7.72;;;4.88;;
55063;SDS011;40963;52.168;21.296;2023-07-02T07:58:55;9.27;;;4.90;;
55063;SDS011;40963;52.168;21.296;2023-07-02T08:01:21;5.78;;;4.93;;
55063;SDS011;40963;52.168;21.296;2023-07-02T08:03:47;6.95;;;4.68;;
55063;SDS011;40963;52.168;21.296;2023-07-02T08:06:12;11.52;;;4.25;;
55063;SDS011;40963;52.168;21.296;2023-07-02T08:08:38;7.53;;;4.65;;
55063;SDS011;40963;52.168;21.296;2023-07-02T08:11:03;9.15;;;4.40;;
55063;SDS011;40963;52.168;21.296;2023-07-02T08:13:29;11.25;;;4.97;;
55063;SDS011;40963;52.168;21.296;2023-07-02T08:15:55;6.03;;;4.18;;
55063;SDS011;40963;52.168;21.296;2023-07-02T08:18:20;8.02;;;3.65;;
55063;SDS011;40963;52.168;21.296;2023-07-02T08:20:46;4.40;;;3.70;;
55063;SDS011;40963;52.168;21.296;2023-07-02T08:23:11;6.50;;;3.33;;
55063;SDS011;40963;52.168;21.296;2023-07-02T08:25:37;10.43;;;3.30;;
55063;SDS011;40963;52.168;21.296;2023-07-02T08:28:03;8.80;;;3.40;;
55063;SDS011;40963;52.168;21.296;2023-07-02T08:30:28;4.10;;;3.13;;
55063;SDS011;40963;52.168;21.296;2023-07-02T08:32:54;6.15;;;3.28;;
55063;SDS011;40963;52.168;21.296;2023-07-02T08:35:20;3.80;;;2.88;;
55063;SDS011;40963;52.168;21.296;2023-07-02T08:37:46;7.60;;;3.40;;
55063;SDS011;40963;52.168;21.296;2023-07-02T08:40:17;3.10;;;2.70;;
55063;SDS011;40963;52.168;21.296;2023-07-02T08:42:44;5.63;;;3.03;;
55063;SDS011;40963;52.168;21.296;2023-07-02T08:45:12;7.63;;;3.10;;
55063;SDS011;40963;52.168;21.296;2023-07-02T08:47:42;3.60;;;2.80;;
55063;SDS011;40963;52.168;21.296;2023-07-02T08:50:09;8.13;;;3.03;;
55063;SDS011;40963;52.168;21.296;2023-07-02T08:52:34;3.53;;;2.92;;
55063;SDS011;40963;52.168;21.296;2023-07-02T08:55:00;5.78;;;2.63;;
55063;SDS011;40963;52.168;21.296;2023-07-02T08:57:26;5.03;;;2.65;;
55063;SDS011;40963;52.168;21.296;2023-07-02T08:59:51;5.35;;;2.80;;
55063;SDS011;40963;52.168;21.296;2023-07-02T09:02:17;3.90;;;2.65;;
55063;SDS011;40963;52.168;21.296;2023-07-02T09:04:43;3.00;;;2.72;;
55063;SDS011;40963;52.168;21.296;2023-07-02T09:12:27;2.55;;;2.35;;
55063;SDS011;40963;52.168;21.296;2023-07-02T09:14:57;4.50;;;2.97;;
55063;SDS011;40963;52.168;21.296;2023-07-02T09:17:59;3.85;;;2.80;;
55063;SDS011;40963;52.168;21.296;2023-07-02T09:20:17;3.35;;;2.38;;
55063;SDS011;40963;52.168;21.296;2023-07-02T09:22:52;3.13;;;2.58;;
55063;SDS011;40963;52.168;21.296;2023-07-02T09:25:19;8.77;;;2.75;;
55063;SDS011;40963;52.168;21.296;2023-07-02T09:27:45;3.47;;;2.78;;
55063;SDS011;40963;52.168;21.296;2023-07-02T09:30:11;5.97;;;3.03;;
55063;SDS011;40963;52.168;21.296;2023-07-02T09:32:39;4.22;;;2.75;;
55063;SDS011;40963;52.168;21.296;2023-07-02T09:35:05;5.78;;;2.97;;
55063;SDS011;40963;52.168;21.296;2023-07-02T09:37:31;3.80;;;3.13;;
55063;SDS011;40963;52.168;21.296;2023-07-02T09:39:57;3.35;;;3.05;;
55063;SDS011;40963;52.168;21.296;2023-07-02T09:42:24;8.05;;;2.67;;
55063;SDS011;40963;52.168;21.296;2023-07-02T09:44:54;3.08;;;2.72;;
55063;SDS011;40963;52.168;21.296;2023-07-02T09:47:22;6.07;;;2.90;;
55063;SDS011;40963;52.168;21.296;2023-07-02T09:49:52;6.47;;;3.30;;
55063;SDS011;40963;52.168;21.296;2023-07-02T09:52:20;3.85;;;2.80;;
55063;SDS011;40963;52.168;21.296;2023-07-02T09:54:47;3.30;;;2.83;;
55063;SDS011;40963;52.168;21.296;2023-07-02T09:57:12;2.90;;;2.70;;
55063;SDS011;40963;52.168;21.296;2023-07-02T09:59:39;3.10;;;2.80;;
55063;SDS011;40963;52.168;21.296;2023-07-02T10:02:05;3.38;;;2.85;;
55063;SDS011;40963;52.168;21.296;2023-07-02T10:04:42;4.55;;;3.10;;
55063;SDS011;40963;52.168;21.296;2023-07-02T10:07:09;3.72;;;2.90;;
55063;SDS011;40963;52.168;21.296;2023-07-02T10:09:39;3.95;;;2.97;;
55063;SDS011;40963;52.168;21.296;2023-07-02T10:14:55;4.18;;;2.70;;
55063;SDS011;40963;52.168;21.296;2023-07-02T10:17:32;4.85;;;3.20;;
55063;SDS011;40963;52.168;21.296;2023-07-02T10:19:59;5.32;;;3.15;;
55063;SDS011;40963;52.168;21.296;2023-07-02T10:22:48;3.22;;;2.92;;
55063;SDS011;40963;52.168;21.296;2023-07-02T10:25:24;4.88;;;3.30;;
55063;SDS011;40963;52.168;21.296;2023-07-02T10:27:51;3.00;;;2.70;;
55063;SDS011;40963;52.168;21.296;2023-07-02T10:30:16;3.00;;;2.67;;
55063;SDS011;40963;52.168;21.296;2023-07-02T10:32:42;2.88;;;2.67;;
55063;SDS011;40963;52.168;21.296;2023-07-02T10:35:17;4.30;;;3.08;;
55063;SDS011;40963;52.168;21.296;2023-07-02T10:40:09;2.88;;;2.50;;
55063;SDS011;40963;52.168;21.296;2023-07-02T10:45:11;2.65;;;2.45;;
55063;SDS011;40963;52.168;21.296;2023-07-02T10:47:39;2.40;;;2.20;;
55063;SDS011;40963;52.168;21.296;2023-07-02T10:50:18;5.13;;;2.60;;
55063;SDS011;40963;52.168;21.296;2023-07-02T10:52:46;3.05;;;2.40;;
55063;SDS011;40963;52.168;21.296;2023-07-02T10:55:18;2.67;;;2.45;;
55063;SDS011;40963;52.168;21.296;2023-07-02T10:57:44;2.60;;;2.40;;
55063;SDS011;40963;52.168;21.296;2023-07-02T11:00:10;3.10;;;2.83;;
55063;SDS011;40963;52.168;21.296;2023-07-02T11:02:36;2.75;;;2.47;;
55063;SDS011;40963;52.168;21.296;2023-07-02T11:05:03;2.40;;;2.03;;
55063;SDS011;40963;52.168;21.296;2023-07-02T11:07:36;2.83;;;1.98;;
55063;SDS011;40963;52.168;21.296;2023-07-02T11:10:06;2.47;;;2.28;;
55063;SDS011;40963;52.168;21.296;2023-07-02T11:12:33;2.50;;;2.10;;
55063;SDS011;40963;52.168;21.296;2023-07-02T11:15:14;6.32;;;2.30;;
55063;SDS011;40963;52.168;21.296;2023-07-02T11:17:42;4.35;;;2.20;;
55063;SDS011;40963;52.168;21.296;2023-07-02T11:20:08;2.58;;;2.17;;
55063;SDS011;40963;52.168;21.296;2023-07-02T11:22:35;2.20;;;2.10;;
55063;SDS011;40963;52.168;21.296;2023-07-02T11:25:14;2.58;;;2.38;;
55063;SDS011;40963;52.168;21.296;2023-07-02T11:27:45;2.67;;;2.15;;
55063;SDS011;40963;52.168;21.296;2023-07-02T11:30:11;2.30;;;2.10;;
55063;SDS011;40963;52.168;21.296;2023-07-02T11:32:53;2.30;;;2.10;;
55063;SDS011;40963;52.168;21.296;2023-07-02T11:35:20;2.03;;;1.92;;
55063;SDS011;40963;52.168;21.296;2023-07-02T11:37:46;2.28;;;2.08;;
55063;SDS011;40963;52.168;21.296;2023-07-02T11:40:13;5.00;;;2.50;;
55063;SDS011;40963;52.168;21.296;2023-07-02T11:42:41;2.25;;;2.05;;
55063;SDS011;40963;52.168;21.296;2023-07-02T11:45:09;3.38;;;2.10;;
55063;SDS011;40963;52.168;21.296;2023-07-02T11:47:35;2.30;;;2.10;;
55063;SDS011;40963;52.168;21.296;2023-07-02T11:50:01;2.75;;;2.25;;
55063;SDS011;40963;52.168;21.296;2023-07-02T11:52:26;5.80;;;2.20;;
55063;SDS011;40963;52.168;21.296;2023-07-02T11:54:52;2.15;;;1.95;;
55063;SDS011;40963;52.168;21.296;2023-07-02T11:57:17;2.72;;;2.20;;
55063;SDS011;40963;52.168;21.296;2023-07-02T11:59:43;3.67;;;1.80;;
55063;SDS011;40963;52.168;21.296;2023-07-02T12:02:09;2.33;;;2.13;;
55063;SDS011;40963;52.168;21.296;2023-07-02T12:04:34;2.13;;;1.92;;
55063;SDS011;40963;52.168;21.296;2023-07-02T12:07:01;2.40;;;2.20;;
55063;SDS011;40963;52.168;21.296;2023-07-02T12:09:28;2.30;;;2.10;;
55063;SDS011;40963;52.168;21.296;2023-07-02T12:11:54;3.15;;;2.25;;
55063;SDS011;40963;52.168;21.296;2023-07-02T12:14:20;2.92;;;2.40;;
55063;SDS011;40963;52.168;21.296;2023-07-02T12:16:45;3.20;;;2.88;;
55063;SDS011;40963;52.168;21.296;2023-07-02T12:19:11;2.28;;;2.08;;
55063;SDS011;40963;52.168;21.296;2023-07-02T12:21:37;7.38;;;2.45;;
55063;SDS011;40963;52.168;21.296;2023-07-02T12:24:02;2.30;;;2.10;;
55063;SDS011;40963;52.168;21.296;2023-07-02T12:26:33;2.63;;;2.17;;
55063;SDS011;40963;52.168;21.296;2023-07-02T12:28:59;3.33;;;2.28;;
55063;SDS011;40963;52.168;21.296;2023-07-02T12:31:24;2.42;;;2.22;;
55063;SDS011;40963;52.168;21.296;2023-07-02T12:33:50;5.35;;;2.20;;
55063;SDS011;40963;52.168;21.296;2023-07-02T12:36:16;2.20;;;2.00;;
55063;SDS011;40963;52.168;21.296;2023-07-02T12:38:41;1.92;;;1.83;;
55063;SDS011;40963;52.168;21.296;2023-07-02T12:41:07;5.95;;;2.13;;
55063;SDS011;40963;52.168;21.296;2023-07-02T12:43:33;3.53;;;1.80;;
55063;SDS011;40963;52.168;21.296;2023-07-02T12:45:58;2.00;;;1.80;;
55063;SDS011;40963;52.168;21.296;2023-07-02T12:48:24;2.47;;;1.90;;
55063;SDS011;40963;52.168;21.296;2023-07-02T12:50:53;1.60;;;1.50;;
55063;SDS011;40963;52.168;21.296;2023-07-02T12:53:27;2.92;;;1.90;;
55063;SDS011;40963;52.168;21.296;2023-07-02T12:55:53;3.33;;;1.80;;
55063;SDS011;40963;52.168;21.296;2023-07-02T12:58:19;2.15;;;1.80;;
55063;SDS011;40963;52.168;21.296;2023-07-02T13:00:46;1.63;;;1.52;;
55063;SDS011;40963;52.168;21.296;2023-07-02T13:03:12;2.33;;;1.55;;
55063;SDS011;40963;52.168;21.296;2023-07-02T13:05:38;3.33;;;2.55;;
55063;SDS011;40963;52.168;21.296;2023-07-02T13:08:04;2.33;;;1.90;;
55063;SDS011;40963;52.168;21.296;2023-07-02T13:10:31;3.15;;;1.65;;
55063;SDS011;40963;52.168;21.296;2023-07-02T13:12:58;2.60;;;1.58;;
55063;SDS011;40963;52.168;21.296;2023-07-02T13:15:23;1.90;;;1.35;;
55063;SDS011;40963;52.168;21.296;2023-07-02T13:17:49;1.30;;;1.30;;
55063;SDS011;40963;52.168;21.296;2023-07-02T13:20:16;4.15;;;1.50;;
55063;SDS011;40963;52.168;21.296;2023-07-02T13:22:41;1.50;;;1.40;;
55063;SDS011;40963;52.168;21.296;2023-07-02T13:25:07;1.83;;;1.55;;
55063;SDS011;40963;52.168;21.296;2023-07-02T13:27:32;3.72;;;1.60;;
55063;SDS011;40963;52.168;21.296;2023-07-02T13:29:58;10.05;;;1.60;;
55063;SDS011;40963;52.168;21.296;2023-07-02T13:32:24;7.90;;;1.65;;
55063;SDS011;40963;52.168;21.296;2023-07-02T13:34:50;2.58;;;1.42;;
55063;SDS011;40963;52.168;21.296;2023-07-02T13:37:16;1.45;;;1.35;;
55063;SDS011;40963;52.168;21.296;2023-07-02T13:39:47;4.88;;;2.50;;
55063;SDS011;40963;52.168;21.296;2023-07-02T13:42:14;3.47;;;2.47;;
55063;SDS011;40963;52.168;21.296;2023-07-02T13:44:40;4.78;;;2.10;;
55063;SDS011;40963;52.168;21.296;2023-07-02T13:47:06;8.15;;;2.17;;
55063;SDS011;40963;52.168;21.296;2023-07-02T13:49:32;4.13;;;2.10;;
55063;SDS011;40963;52.168;21.296;2023-07-02T13:51:58;2.60;;;1.80;;
55063;SDS011;40963;52.168;21.296;2023-07-02T13:54:23;2.17;;;1.98;;
55063;SDS011;40963;52.168;21.296;2023-07-02T13:56:49;8.00;;;1.67;;
55063;SDS011;40963;52.168;21.296;2023-07-02T13:59:15;7.32;;;4.60;;
55063;SDS011;40963;52.168;21.296;2023-07-02T14:01:42;3.58;;;2.00;;
55063;SDS011;40963;52.168;21.296;2023-07-02T14:04:08;6.15;;;3.20;;
55063;SDS011;40963;52.168;21.296;2023-07-02T14:06:34;22.27;;;13.95;;
55063;SDS011;40963;52.168;21.296;2023-07-02T14:09:00;5.18;;;3.65;;
55063;SDS011;40963;52.168;21.296;2023-07-02T14:11:26;9.65;;;5.13;;
55063;SDS011;40963;52.168;21.296;2023-07-02T14:13:52;4.85;;;2.95;;
55063;SDS011;40963;52.168;21.296;2023-07-02T14:16:19;5.32;;;3.20;;
55063;SDS011;40963;52.168;21.296;2023-07-02T14:18:44;2.38;;;1.80;;
55063;SDS011;40963;52.168;21.296;2023-07-02T14:21:10;5.18;;;4.03;;
55063;SDS011;40963;52.168;21.296;2023-07-02T14:23:36;10.75;;;2.00;;
55063;SDS011;40963;52.168;21.296;2023-07-02T14:26:01;12.98;;;9.43;;
55063;SDS011;40963;52.168;21.296;2023-07-02T14:28:27;6.15;;;2.58;;
55063;SDS011;40963;52.168;21.296;2023-07-02T14:31:04;4.28;;;3.13;;
55063;SDS011;40963;52.168;21.296;2023-07-02T14:33:31;4.88;;;3.33;;